Time;durP1;ratioP1;P1;durP2;ratioP2;P2;SDS_P1;SDS_P2;PMS_P1;PMS_P2;Temp;Humidity;BMP_temperature;BMP_pressure;BME280_temperature;BME280_humidity;BME280_pressure;Samples;Min_cycle;Max_cycle;Signal;HPM_P1;HPM_P2
2023/08/21 05:33:51;;;;;;;7.38;1.77;;;17.60;60.30;;;;;;6272535;22;20304;-73
2023/08/21 05:36:19;;;;;;;6.90;1.40;;;17.50;60.30;;;;;;6247909;22;20015;-71
2023/08/21 05:38:47;;;;;;;4.90;1.50;;;17.60;58.80;;;;;;6275147;22;20434;-71
2023/08/21 05:41:15;;;;;;;8.27;1.92;;;17.60;59.60;;;;;;6273824;22;19996;-72
2023/08/21 05:43:43;;;;;;;6.57;1.75;;;17.60;59.30;;;;;;6275228;22;20004;-72
2023/08/21 05:46:10;;;;;;;6.65;1.90;;;17.70;59.20;;;;;;6248390;22;20335;-72
2023/08/21 05:48:37;;;;;;;7.03;1.88;;;17.70;60.00;;;;;;6273460;22;20008;-72
2023/08/21 05:51:05;;;;;;;4.35;1.60;;;17.70;61.50;;;;;;6273466;22;20473;-72
2023/08/21 05:53:32;;;;;;;4.22;1.65;;;17.70;60.40;;;;;;6247596;22;20082;-72
2023/08/21 05:55:59;;;;;;;4.63;1.52;;;17.70;59.80;;;;;;6275072;22;20028;-71
2023/08/21 05:58:30;;;;;;;4.32;1.60;;;17.70;60.20;;;;;;6271523;22;20486;-74
2023/08/21 06:00:57;;;;;;;9.13;1.85;;;17.70;60.00;;;;;;6271767;22;20446;-74
2023/08/21 06:03:24;;;;;;;4.70;1.73;;;17.70;61.60;;;;;;6272495;22;20007;-75
2023/08/21 06:05:51;;;;;;;8.10;1.80;;;17.70;63.00;;;;;;6271964;22;20008;-71
2023/08/21 06:08:19;;;;;;;12.85;1.90;;;17.60;65.30;;;;;;6271643;22;20031;-71
2023/08/21 06:10:50;;;;;;;8.18;2.17;;;17.60;66.40;;;;;;6271662;22;20000;-73
2023/08/21 06:13:18;;;;;;;8.18;1.75;;;17.60;67.30;;;;;;6269807;22;20062;-73
2023/08/21 06:15:45;;;;;;;23.73;3.75;;;17.60;68.20;;;;;;6271709;22;20027;-73
2023/08/21 06:18:12;;;;;;;11.55;2.20;;;17.50;68.80;;;;;;6271693;22;20008;-72
2023/08/21 06:20:39;;;;;;;10.57;2.65;;;17.50;69.40;;;;;;6272308;22;20067;-73
2023/08/21 06:23:07;;;;;;;9.95;2.25;;;17.50;69.80;;;;;;6271528;22;20300;-72
2023/08/21 06:25:34;;;;;;;5.80;1.80;;;17.50;70.00;;;;;;6272043;22;19999;-72
2023/08/21 06:28:01;;;;;;;5.25;1.73;;;17.50;69.80;;;;;;6271676;22;20054;-74
2023/08/21 06:30:29;;;;;;;5.25;1.40;;;17.40;69.30;;;;;;6271063;22;20003;-76
2023/08/21 15:27:48;;;;;;;3.83;1.75;;;13.60;81.60;;;;;;6270809;22;20410;-78
2023/08/21 15:30:17;;;;;;;6.15;2.00;;;13.50;81.50;;;;;;6275161;22;20004;-78
2023/08/21 15:32:44;;;;;;;4.00;1.90;;;13.50;81.70;;;;;;6274310;22;20335;-77
2023/08/21 15:35:12;;;;;;;2.88;1.95;;;13.50;81.90;;;;;;6274287;22;20053;-77
2023/08/21 15:37:39;;;;;;;3.50;1.95;;;13.50;81.80;;;;;;6274818;22;20077;-77
2023/08/21 15:40:07;;;;;;;5.88;2.10;;;13.40;82.10;;;;;;6274947;22;20033;-77
2023/08/21 15:42:34;;;;;;;3.47;1.80;;;13.40;82.00;;;;;;6276617;22;20083;-78
2023/08/21 15:45:02;;;;;;;5.20;2.10;;;13.30;82.10;;;;;;6249273;22;20046;-78
2023/08/21 15:47:29;;;;;;;5.88;2.40;;;13.30;82.20;;;;;;6275871;22;20076;-77
2023/08/21 15:49:56;;;;;;;2.78;1.90;;;13.20;82.60;;;;;;6274401;22;20006;-78
2023/08/21 15:52:23;;;;;;;5.32;1.90;;;13.20;82.90;;;;;;6276899;22;20011;-77
2023/08/21 15:54:51;;;;;;;3.78;1.77;;;13.20;82.90;;;;;;6275832;22;20000;-78
2023/08/21 15:57:23;;;;;;;2.95;1.95;;;13.20;83.10;;;;;;6276178;22;20008;-77
2023/08/21 15:59:51;;;;;;;4.85;1.90;;;13.20;83.30;;;;;;6276289;22;20007;-77
2023/08/21 16:02:18;;;;;;;3.58;2.10;;;13.20;83.40;;;;;;6275863;22;20063;-77
2023/08/21 16:04:46;;;;;;;4.70;1.98;;;13.20;83.50;;;;;;6275774;22;20004;-77
2023/08/21 16:07:13;;;;;;;3.67;1.70;;;13.20;83.50;;;;;;6274719;22;20000;-77
2023/08/21 16:09:40;;;;;;;4.43;1.83;;;13.20;83.50;;;;;;6274102;22;20068;-78
2023/08/21 16:12:08;;;;;;;4.88;2.05;;;13.10;83.50;;;;;;6274789;22;20125;-77
2023/08/21 16:14:35;;;;;;;4.38;1.90;;;13.00;83.70;;;;;;6248068;22;20065;-77
2023/08/21 16:17:02;;;;;;;4.80;2.20;;;13.00;83.80;;;;;;6275293;22;20442;-78
2023/08/21 16:19:29;;;;;;;3.97;2.00;;;13.00;83.80;;;;;;6275844;22;20019;-77
2023/08/21 16:21:57;;;;;;;1.90;1.60;;;13.00;84.10;;;;;;6276261;22;20049;-77
2023/08/21 16:24:24;;;;;;;7.65;2.20;;;13.00;84.30;;;;;;6274604;22;20011;-77
2023/08/21 16:26:51;;;;;;;2.80;1.90;;;13.00;84.00;;;;;;6223577;22;20435;-77
2023/08/21 16:29:18;;;;;;;3.70;2.17;;;13.00;83.80;;;;;;6274275;22;20004;-77
2023/08/21 16:31:45;;;;;;;5.63;2.13;;;13.00;84.00;;;;;;6275846;22;20023;-78
2023/08/21 16:34:13;;;;;;;3.75;2.22;;;13.00;84.50;;;;;;6276109;22;20008;-77
2023/08/21 16:36:41;;;;;;;4.03;1.98;;;13.00;84.80;;;;;;6274417;22;20030;-77
2023/08/21 16:39:08;;;;;;;3.28;1.95;;;12.90;84.90;;;;;;6273874;22;20004;-77
2023/08/21 16:41:35;;;;;;;4.30;2.25;;;12.90;85.10;;;;;;6249125;22;20004;-77
2023/08/21 16:44:03;;;;;;;3.88;2.15;;;12.80;85.40;;;;;;6274284;22;20012;-77
2023/08/21 16:46:30;;;;;;;6.75;2.00;;;12.80;85.40;;;;;;6274069;22;20000;-77
2023/08/21 16:48:57;;;;;;;5.35;2.47;;;12.80;85.40;;;;;;6248201;22;20000;-77
2023/08/21 16:51:24;;;;;;;3.33;2.08;;;12.80;85.30;;;;;;6275895;22;20008;-77
2023/08/21 16:53:52;;;;;;;7.68;2.90;;;12.80;85.20;;;;;;6248707;22;20102;-77
2023/08/21 16:56:19;;;;;;;5.25;2.63;;;12.70;85.10;;;;;;6275858;22;20419;-77
2023/08/21 16:58:46;;;;;;;8.65;2.80;;;12.80;85.00;;;;;;6273554;22;20019;-77
2023/08/21 17:01:13;;;;;;;10.05;3.25;;;12.80;84.90;;;;;;6270624;22;19999;-77
2023/08/21 17:03:41;;;;;;;7.32;3.35;;;12.80;84.80;;;;;;6272344;22;20105;-77
2023/08/21 17:06:08;;;;;;;6.82;3.22;;;12.80;84.70;;;;;;6274531;22;20000;-77
2023/08/21 17:08:35;;;;;;;8.70;3.42;;;12.80;84.60;;;;;;6273284;22;20014;-77
2023/08/21 17:11:03;;;;;;;9.23;3.35;;;12.70;84.40;;;;;;6274063;22;19999;-76
2023/08/21 17:13:30;;;;;;;4.80;3.08;;;12.70;84.30;;;;;;6275274;22;20000;-77
2023/08/21 17:15:58;;;;;;;6.10;2.97;;;12.70;84.30;;;;;;6275475;22;19996;-77
2023/08/21 17:18:26;;;;;;;9.90;3.28;;;12.70;84.50;;;;;;6275766;22;20468;-77
2023/08/21 17:20:53;;;;;;;7.03;3.03;;;12.60;84.30;;;;;;6275159;22;20067;-77
2023/08/21 17:23:21;;;;;;;11.85;3.53;;;12.60;84.30;;;;;;6248595;22;20007;-77
2023/08/21 17:25:48;;;;;;;11.07;3.80;;;12.60;84.30;;;;;;6249049;22;20434;-77
2023/08/21 17:28:15;;;;;;;6.20;3.25;;;12.60;84.40;;;;;;6272944;22;20110;-77
2023/08/21 17:30:42;;;;;;;8.18;3.05;;;12.60;84.80;;;;;;6273282;22;20008;-77
2023/08/21 17:33:09;;;;;;;7.28;3.22;;;12.50;85.00;;;;;;6275291;22;20031;-77
2023/08/21 17:35:37;;;;;;;8.45;2.85;;;12.50;85.00;;;;;;6273961;22;20038;-77
2023/08/21 17:38:04;;;;;;;10.70;3.72;;;12.50;84.90;;;;;;6274368;22;20035;-77
2023/08/21 17:40:31;;;;;;;7.25;3.58;;;12.50;84.80;;;;;;6275426;22;20082;-77
2023/08/21 17:42:58;;;;;;;13.52;3.83;;;12.40;84.80;;;;;;6274437;22;20446;-76
2023/08/21 17:45:25;;;;;;;6.13;3.53;;;12.40;84.70;;;;;;6223337;22;20014;-78
2023/08/21 17:47:53;;;;;;;10.50;3.55;;;12.40;84.80;;;;;;6274698;22;20078;-78
2023/08/21 17:50:20;;;;;;;6.07;3.13;;;12.40;85.00;;;;;;6248180;22;20000;-77
2023/08/21 17:52:47;;;;;;;10.77;3.42;;;12.30;85.00;;;;;;6273573;22;20007;-77
2023/08/21 17:55:14;;;;;;;9.68;3.33;;;12.30;85.00;;;;;;6273887;22;20794;-77
2023/08/21 17:57:42;;;;;;;7.93;3.40;;;12.30;85.20;;;;;;6273456;22;20012;-76
2023/08/21 18:00:11;;;;;;;8.48;3.72;;;12.30;85.10;;;;;;6275201;22;20000;-77
2023/08/21 18:02:38;;;;;;;10.55;3.80;;;12.30;85.10;;;;;;6273720;22;20326;-77
2023/08/21 18:05:06;;;;;;;7.95;3.58;;;12.20;85.00;;;;;;6275666;22;20004;-77
2023/08/21 18:07:33;;;;;;;12.40;3.72;;;12.20;85.10;;;;;;6274060;22;20010;-77
2023/08/21 18:10:01;;;;;;;8.57;3.85;;;12.20;85.10;;;;;;6274006;22;20387;-77
2023/08/21 18:12:28;;;;;;;9.15;3.40;;;12.20;85.10;;;;;;6275186;22;20381;-77
2023/08/21 18:14:55;;;;;;;9.75;3.50;;;12.20;85.40;;;;;;6275697;22;20012;-77
2023/08/21 18:17:22;;;;;;;10.63;3.90;;;12.20;85.20;;;;;;6247720;22;20019;-77
